sensor_id;sensor_type;location;lat;lon;timestamp;P1;durP1;ratioP1;P2;durP2;ratioP2
22939;SDS011;11636;52.086;5.090;2023-08-17T00:01:14;5.50;;;1.80;;
22939;SDS011;11636;52.086;5.090;2023-08-17T00:04:08;4.28;;;1.70;;
22939;SDS011;11636;52.086;5.090;2023-08-17T00:06:55;2.60;;;1.30;;
22939;SDS011;11636;52.086;5.090;2023-08-17T00:09:48;7.63;;;1.95;;
22939;SDS011;11636;52.086;5.090;2023-08-17T00:12:36;3.90;;;1.45;;
22939;SDS011;11636;52.086;5.090;2023-08-17T00:15:30;6.30;;;2.05;;
22939;SDS011;11636;52.086;5.090;2023-08-17T00:18:17;3.83;;;1.58;;
22939;SDS011;11636;52.086;5.090;2023-08-17T00:21:11;5.03;;;1.85;;
22939;SDS011;11636;52.086;5.090;2023-08-17T00:23:58;4.05;;;1.38;;
22939;SDS011;11636;52.086;5.090;2023-08-17T00:26:52;3.25;;;1.50;;
22939;SDS011;11636;52.086;5.090;2023-08-17T00:29:39;3.78;;;1.48;;
22939;SDS011;11636;52.086;5.090;2023-08-17T00:32:33;3.42;;;1.50;;
22939;SDS011;11636;52.086;5.090;2023-08-17T00:35:27;5.65;;;1.60;;
22939;SDS011;11636;52.086;5.090;2023-08-17T00:38:21;4.72;;;1.55;;
22939;SDS011;11636;52.086;5.090;2023-08-17T00:41:08;5.85;;;1.83;;
22939;SDS011;11636;52.086;5.090;2023-08-17T00:44:02;5.32;;;1.60;;
22939;SDS011;11636;52.086;5.090;2023-08-17T00:46:56;3.75;;;1.55;;
22939;SDS011;11636;52.086;5.090;2023-08-17T00:49:43;3.17;;;1.30;;
22939;SDS011;11636;52.086;5.090;2023-08-17T00:52:38;3.22;;;1.58;;
22939;SDS011;11636;52.086;5.090;2023-08-17T00:55:25;4.25;;;1.83;;
22939;SDS011;11636;52.086;5.090;2023-08-17T00:58:21;5.10;;;1.73;;
22939;SDS011;11636;52.086;5.090;2023-08-17T01:01:15;5.20;;;1.60;;
22939;SDS011;11636;52.086;5.090;2023-08-17T01:04:10;3.92;;;1.58;;
22939;SDS011;11636;52.086;5.090;2023-08-17T01:06:57;4.43;;;1.73;;
22939;SDS011;11636;52.086;5.090;2023-08-17T01:09:51;4.32;;;1.30;;
22939;SDS011;11636;52.086;5.090;2023-08-17T01:16:02;4.20;;;1.70;;
22939;SDS011;11636;52.086;5.090;2023-08-17T01:18:59;3.22;;;1.60;;
22939;SDS011;11636;52.086;5.090;2023-08-17T01:21:49;3.72;;;1.50;;
22939;SDS011;11636;52.086;5.090;2023-08-17T01:24:44;4.93;;;1.60;;
22939;SDS011;11636;52.086;5.090;2023-08-17T01:27:33;4.63;;;1.52;;
22939;SDS011;11636;52.086;5.090;2023-08-17T01:30:45;3.58;;;1.40;;
22939;SDS011;11636;52.086;5.090;2023-08-17T01:33:49;3.80;;;1.83;;
22939;SDS011;11636;52.086;5.090;2023-08-17T01:36:49;3.00;;;1.40;;
22939;SDS011;11636;52.086;5.090;2023-08-17T01:39:42;4.18;;;1.35;;
22939;SDS011;11636;52.086;5.090;2023-08-17T01:42:38;3.97;;;1.75;;
22939;SDS011;11636;52.086;5.090;2023-08-17T01:45:33;3.10;;;1.30;;
22939;SDS011;11636;52.086;5.090;2023-08-17T01:48:27;5.00;;;1.38;;
22939;SDS011;11636;52.086;5.090;2023-08-17T01:51:21;3.00;;;1.42;;
22939;SDS011;11636;52.086;5.090;2023-08-17T01:54:15;5.22;;;2.15;;
22939;SDS011;11636;52.086;5.090;2023-08-17T01:57:09;3.75;;;1.60;;
22939;SDS011;11636;52.086;5.090;2023-08-17T01:59:56;3.47;;;1.70;;
22939;SDS011;11636;52.086;5.090;2023-08-17T02:02:50;2.72;;;1.13;;
22939;SDS011;11636;52.086;5.090;2023-08-17T02:05:37;4.05;;;1.88;;
22939;SDS011;11636;52.086;5.090;2023-08-17T02:08:32;4.00;;;1.80;;
22939;SDS011;11636;52.086;5.090;2023-08-17T02:11:27;4.22;;;1.70;;
22939;SDS011;11636;52.086;5.090;2023-08-17T02:14:21;4.43;;;1.80;;
22939;SDS011;11636;52.086;5.090;2023-08-17T02:17:08;4.78;;;1.58;;
22939;SDS011;11636;52.086;5.090;2023-08-17T02:20:02;3.40;;;1.40;;
22939;SDS011;11636;52.086;5.090;2023-08-17T02:22:50;2.72;;;1.30;;
22939;SDS011;11636;52.086;5.090;2023-08-17T02:25:44;3.88;;;1.50;;
22939;SDS011;11636;52.086;5.090;2023-08-17T02:28:38;4.18;;;1.52;;
22939;SDS011;11636;52.086;5.090;2023-08-17T02:31:25;3.28;;;1.30;;
22939;SDS011;11636;52.086;5.090;2023-08-17T02:34:19;4.57;;;1.75;;
22939;SDS011;11636;52.086;5.090;2023-08-17T02:37:06;3.30;;;1.40;;
22939;SDS011;11636;52.086;5.090;2023-08-17T02:40:00;4.18;;;1.42;;
22939;SDS011;11636;52.086;5.090;2023-08-17T02:42:47;3.72;;;1.60;;
22939;SDS011;11636;52.086;5.090;2023-08-17T02:45:41;4.78;;;1.90;;
22939;SDS011;11636;52.086;5.090;2023-08-17T02:48:28;4.32;;;1.98;;
22939;SDS011;11636;52.086;5.090;2023-08-17T02:51:23;3.60;;;1.40;;
22939;SDS011;11636;52.086;5.090;2023-08-17T02:54:10;4.38;;;1.60;;
22939;SDS011;11636;52.086;5.090;2023-08-17T02:57:04;4.43;;;1.90;;
22939;SDS011;11636;52.086;5.090;2023-08-17T02:59:58;4.47;;;1.60;;
22939;SDS011;11636;52.086;5.090;2023-08-17T03:02:52;4.28;;;1.92;;
22939;SDS011;11636;52.086;5.090;2023-08-17T03:05:40;4.35;;;1.65;;
22939;SDS011;11636;52.086;5.090;2023-08-17T03:08:34;4.68;;;1.80;;
22939;SDS011;11636;52.086;5.090;2023-08-17T03:11:28;3.22;;;1.42;;
22939;SDS011;11636;52.086;5.090;2023-08-17T03:14:15;4.95;;;1.80;;
22939;SDS011;11636;52.086;5.090;2023-08-17T03:17:09;4.07;;;1.60;;
22939;SDS011;11636;52.086;5.090;2023-08-17T03:20:03;4.88;;;1.60;;
22939;SDS011;11636;52.086;5.090;2023-08-17T03:22:59;3.50;;;1.40;;
22939;SDS011;11636;52.086;5.090;2023-08-17T03:25:53;3.85;;;1.27;;
22939;SDS011;11636;52.086;5.090;2023-08-17T03:28:41;4.15;;;1.67;;
22939;SDS011;11636;52.086;5.090;2023-08-17T03:31:35;3.92;;;1.50;;
22939;SDS011;11636;52.086;5.090;2023-08-17T03:34:29;5.53;;;1.90;;
22939;SDS011;11636;52.086;5.090;2023-08-17T03:37:23;4.93;;;1.85;;
22939;SDS011;11636;52.086;5.090;2023-08-17T03:40:11;3.45;;;1.63;;
22939;SDS011;11636;52.086;5.090;2023-08-17T03:43:04;6.20;;;1.80;;
22939;SDS011;11636;52.086;5.090;2023-08-17T03:45:51;5.40;;;1.98;;
22939;SDS011;11636;52.086;5.090;2023-08-17T03:48:45;5.38;;;2.05;;
22939;SDS011;11636;52.086;5.090;2023-08-17T03:51:32;5.72;;;2.17;;
22939;SDS011;11636;52.086;5.090;2023-08-17T03:54:26;4.97;;;2.00;;
22939;SDS011;11636;52.086;5.090;2023-08-17T03:57:13;5.07;;;2.03;;
22939;SDS011;11636;52.086;5.090;2023-08-17T04:00:07;4.38;;;1.60;;
22939;SDS011;11636;52.086;5.090;2023-08-17T04:02:56;4.88;;;1.60;;
22939;SDS011;11636;52.086;5.090;2023-08-17T04:05:50;4.32;;;1.70;;
22939;SDS011;11636;52.086;5.090;2023-08-17T04:08:44;5.38;;;1.98;;
22939;SDS011;11636;52.086;5.090;2023-08-17T04:11:34;6.30;;;1.85;;
22939;SDS011;11636;52.086;5.090;2023-08-17T04:14:29;4.05;;;1.52;;
22939;SDS011;11636;52.086;5.090;2023-08-17T04:17:23;3.53;;;1.58;;
22939;SDS011;11636;52.086;5.090;2023-08-17T04:20:11;4.43;;;1.60;;
22939;SDS011;11636;52.086;5.090;2023-08-17T04:23:05;4.93;;;1.75;;
22939;SDS011;11636;52.086;5.090;2023-08-17T04:25:59;3.45;;;1.42;;
22939;SDS011;11636;52.086;5.090;2023-08-17T04:28:46;5.72;;;1.80;;
22939;SDS011;11636;52.086;5.090;2023-08-17T04:31:40;3.58;;;1.60;;
22939;SDS011;11636;52.086;5.090;2023-08-17T04:34:27;4.03;;;1.52;;
22939;SDS011;11636;52.086;5.090;2023-08-17T04:37:27;4.53;;;1.50;;
22939;SDS011;11636;52.086;5.090;2023-08-17T04:40:15;6.05;;;1.63;;
22939;SDS011;11636;52.086;5.090;2023-08-17T04:43:09;4.65;;;1.75;;
22939;SDS011;11636;52.086;5.090;2023-08-17T04:45:57;3.63;;;1.30;;
22939;SDS011;11636;52.086;5.090;2023-08-17T04:48:51;5.72;;;1.95;;
22939;SDS011;11636;52.086;5.090;2023-08-17T04:51:39;3.97;;;1.40;;
22939;SDS011;11636;52.086;5.090;2023-08-17T04:54:32;3.45;;;1.45;;
22939;SDS011;11636;52.086;5.090;2023-08-17T04:57:19;4.07;;;1.60;;
22939;SDS011;11636;52.086;5.090;2023-08-17T05:00:14;3.83;;;1.63;;
22939;SDS011;11636;52.086;5.090;2023-08-17T05:03:02;4.13;;;1.77;;
22939;SDS011;11636;52.086;5.090;2023-08-17T05:06:09;4.50;;;1.50;;
22939;SDS011;11636;52.086;5.090;2023-08-17T05:08:56;4.90;;;1.20;;
22939;SDS011;11636;52.086;5.090;2023-08-17T05:11:52;4.25;;;1.30;;
22939;SDS011;11636;52.086;5.090;2023-08-17T05:14:40;4.18;;;1.50;;
22939;SDS011;11636;52.086;5.090;2023-08-17T05:17:34;2.85;;;1.20;;
22939;SDS011;11636;52.086;5.090;2023-08-17T05:20:28;3.95;;;1.50;;
22939;SDS011;11636;52.086;5.090;2023-08-17T05:23:15;3.95;;;1.58;;
22939;SDS011;11636;52.086;5.090;2023-08-17T05:26:09;3.17;;;1.25;;
22939;SDS011;11636;52.086;5.090;2023-08-17T05:29:03;2.55;;;1.10;;
22939;SDS011;11636;52.086;5.090;2023-08-17T05:31:50;3.38;;;1.15;;
22939;SDS011;11636;52.086;5.090;2023-08-17T05:34:44;3.33;;;1.33;;
22939;SDS011;11636;52.086;5.090;2023-08-17T05:37:33;3.83;;;1.30;;
22939;SDS011;11636;52.086;5.090;2023-08-17T05:40:26;3.83;;;1.27;;
22939;SDS011;11636;52.086;5.090;2023-08-17T05:43:15;3.20;;;0.90;;
22939;SDS011;11636;52.086;5.090;2023-08-17T05:46:09;2.65;;;1.35;;
22939;SDS011;11636;52.086;5.090;2023-08-17T05:48:56;3.67;;;1.25;;
22939;SDS011;11636;52.086;5.090;2023-08-17T05:51:51;3.80;;;1.48;;
22939;SDS011;11636;52.086;5.090;2023-08-17T05:54:38;2.72;;;0.90;;
22939;SDS011;11636;52.086;5.090;2023-08-17T05:57:32;3.63;;;1.27;;
22939;SDS011;11636;52.086;5.090;2023-08-17T06:00:26;4.55;;;1.55;;
22939;SDS011;11636;52.086;5.090;2023-08-17T06:03:27;5.35;;;1.60;;
22939;SDS011;11636;52.086;5.090;2023-08-17T06:06:21;3.78;;;1.30;;
22939;SDS011;11636;52.086;5.090;2023-08-17T06:09:08;4.57;;;1.38;;
22939;SDS011;11636;52.086;5.090;2023-08-17T06:12:02;3.83;;;1.35;;
22939;SDS011;11636;52.086;5.090;2023-08-17T06:14:56;3.92;;;1.27;;
22939;SDS011;11636;52.086;5.090;2023-08-17T06:17:43;3.70;;;1.50;;
22939;SDS011;11636;52.086;5.090;2023-08-17T06:20:39;5.43;;;1.85;;
22939;SDS011;11636;52.086;5.090;2023-08-17T06:23:33;2.45;;;1.17;;
22939;SDS011;11636;52.086;5.090;2023-08-17T06:26:27;5.55;;;1.58;;
22939;SDS011;11636;52.086;5.090;2023-08-17T06:29:14;3.85;;;1.38;;
22939;SDS011;11636;52.086;5.090;2023-08-17T06:32:08;4.20;;;1.50;;
22939;SDS011;11636;52.086;5.090;2023-08-17T06:34:55;5.13;;;1.70;;
22939;SDS011;11636;52.086;5.090;2023-08-17T06:37:50;4.13;;;1.48;;
22939;SDS011;11636;52.086;5.090;2023-08-17T06:40:42;5.28;;;2.10;;
22939;SDS011;11636;52.086;5.090;2023-08-17T06:43:36;5.88;;;1.90;;
22939;SDS011;11636;52.086;5.090;2023-08-17T06:46:30;4.13;;;1.52;;
22939;SDS011;11636;52.086;5.090;2023-08-17T06:49:26;4.28;;;1.60;;
22939;SDS011;11636;52.086;5.090;2023-08-17T06:52:20;5.07;;;1.52;;
22939;SDS011;11636;52.086;5.090;2023-08-17T06:55:08;4.63;;;1.40;;
22939;SDS011;11636;52.086;5.090;2023-08-17T06:58:02;3.30;;;1.52;;
22939;SDS011;11636;52.086;5.090;2023-08-17T07:00:49;4.18;;;1.42;;
22939;SDS011;11636;52.086;5.090;2023-08-17T07:03:43;4.90;;;1.83;;
22939;SDS011;11636;52.086;5.090;2023-08-17T07:06:37;2.88;;;1.30;;
22939;SDS011;11636;52.086;5.090;2023-08-17T07:09:31;4.70;;;1.50;;
22939;SDS011;11636;52.086;5.090;2023-08-17T07:12:18;3.95;;;1.42;;
22939;SDS011;11636;52.086;5.090;2023-08-17T07:15:12;4.15;;;1.50;;
22939;SDS011;11636;52.086;5.090;2023-08-17T07:18:06;5.13;;;1.75;;
22939;SDS011;11636;52.086;5.090;2023-08-17T07:20:53;4.72;;;1.67;;
22939;SDS011;11636;52.086;5.090;2023-08-17T07:23:47;4.63;;;1.95;;
22939;SDS011;11636;52.086;5.090;2023-08-17T07:26:36;4.97;;;1.90;;
22939;SDS011;11636;52.086;5.090;2023-08-17T07:29:29;4.25;;;1.83;;
22939;SDS011;11636;52.086;5.090;2023-08-17T07:32:16;4.18;;;1.60;;
22939;SDS011;11636;52.086;5.090;2023-08-17T07:35:10;4.95;;;1.42;;
22939;SDS011;11636;52.086;5.090;2023-08-17T07:38:04;3.38;;;1.45;;
22939;SDS011;11636;52.086;5.090;2023-08-17T07:40:55;5.38;;;1.83;;
22939;SDS011;11636;52.086;5.090;2023-08-17T07:43:48;5.72;;;1.92;;
22939;SDS011;11636;52.086;5.090;2023-08-17T07:46:36;3.78;;;1.77;;
22939;SDS011;11636;52.086;5.090;2023-08-17T07:49:29;4.78;;;2.05;;
22939;SDS011;11636;52.086;5.090;2023-08-17T07:52:18;5.75;;;2.05;;
22939;SDS011;11636;52.086;5.090;2023-08-17T07:55:12;4.28;;;1.70;;
22939;SDS011;11636;52.086;5.090;2023-08-17T07:58:06;4.35;;;1.50;;
22939;SDS011;11636;52.086;5.090;2023-08-17T08:00:53;6.15;;;1.98;;
22939;SDS011;11636;52.086;5.090;2023-08-17T08:03:49;3.75;;;1.42;;
22939;SDS011;11636;52.086;5.090;2023-08-17T08:06:44;3.53;;;1.60;;
22939;SDS011;11636;52.086;5.090;2023-08-17T08:09:31;2.70;;;1.20;;
22939;SDS011;11636;52.086;5.090;2023-08-17T08:12:24;3.33;;;1.30;;
22939;SDS011;11636;52.086;5.090;2023-08-17T08:15:18;3.50;;;1.73;;
22939;SDS011;11636;52.086;5.090;2023-08-17T08:18:06;2.88;;;1.25;;
22939;SDS011;11636;52.086;5.090;2023-08-17T08:20:59;3.50;;;1.27;;
22939;SDS011;11636;52.086;5.090;2023-08-17T08:23:47;3.85;;;1.40;;
22939;SDS011;11636;52.086;5.090;2023-08-17T08:26:42;2.20;;;1.05;;
22939;SDS011;11636;52.086;5.090;2023-08-17T08:29:35;5.72;;;1.95;;
22939;SDS011;11636;52.086;5.090;2023-08-17T08:32:29;7.82;;;1.88;;
22939;SDS011;11636;52.086;5.090;2023-08-17T08:35:17;3.97;;;1.58;;
22939;SDS011;11636;52.086;5.090;2023-08-17T08:38:10;2.92;;;1.20;;
22939;SDS011;11636;52.086;5.090;2023-08-17T08:41:05;5.70;;;2.13;;
22939;SDS011;11636;52.086;5.090;2023-08-17T08:44:01;5.55;;;1.90;;
22939;SDS011;11636;52.086;5.090;2023-08-17T08:46:48;6.70;;;1.98;;
22939;SDS011;11636;52.086;5.090;2023-08-17T08:50:01;4.40;;;1.60;;
22939;SDS011;11636;52.086;5.090;2023-08-17T08:52:53;3.80;;;1.33;;
22939;SDS011;11636;52.086;5.090;2023-08-17T08:55:58;2.90;;;1.30;;
22939;SDS011;11636;52.086;5.090;2023-08-17T08:58:46;3.42;;;1.55;;
22939;SDS011;11636;52.086;5.090;2023-08-17T09:01:40;3.08;;;1.25;;
22939;SDS011;11636;52.086;5.090;2023-08-17T09:04:37;2.97;;;1.25;;
22939;SDS011;11636;52.086;5.090;2023-08-17T09:07:30;3.33;;;1.40;;
22939;SDS011;11636;52.086;5.090;2023-08-17T09:10:25;4.22;;;1.45;;
22939;SDS011;11636;52.086;5.090;2023-08-17T09:13:16;3.00;;;1.40;;
22939;SDS011;11636;52.086;5.090;2023-08-17T09:16:09;5.13;;;1.52;;
22939;SDS011;11636;52.086;5.090;2023-08-17T09:18:57;4.82;;;1.40;;
22939;SDS011;11636;52.086;5.090;2023-08-17T09:21:51;2.15;;;1.05;;
22939;SDS011;11636;52.086;5.090;2023-08-17T09:24:38;2.75;;;1.08;;
22939;SDS011;11636;52.086;5.090;2023-08-17T09:27:32;3.80;;;1.23;;
22939;SDS011;11636;52.086;5.090;2023-08-17T09:30:20;4.63;;;1.30;;
22939;SDS011;11636;52.086;5.090;2023-08-17T09:33:13;3.10;;;1.10;;
22939;SDS011;11636;52.086;5.090;2023-08-17T09:36:01;3.38;;;1.15;;
22939;SDS011;11636;52.086;5.090;2023-08-17T09:38:54;4.40;;;1.40;;
22939;SDS011;11636;52.086;5.090;2023-08-17T09:41:43;2.47;;;1.15;;
22939;SDS011;11636;52.086;5.090;2023-08-17T09:44:38;3.33;;;1.23;;
22939;SDS011;11636;52.086;5.090;2023-08-17T09:47:25;2.17;;;0.90;;
22939;SDS011;11636;52.086;5.090;2023-08-17T09:50:22;2.70;;;1.20;;
22939;SDS011;11636;52.086;5.090;2023-08-17T09:53:13;5.20;;;1.63;;
22939;SDS011;11636;52.086;5.090;2023-08-17T09:56:07;4.82;;;1.70;;
22939;SDS011;11636;52.086;5.090;2023-08-17T09:59:03;3.80;;;1.85;;
22939;SDS011;11636;52.086;5.090;2023-08-17T10:01:56;4.50;;;2.00;;
22939;SDS011;11636;52.086;5.090;2023-08-17T10:04:53;4.22;;;1.88;;
22939;SDS011;11636;52.086;5.090;2023-08-17T10:07:53;3.70;;;1.50;;
22939;SDS011;11636;52.086;5.090;2023-08-17T10:10:49;2.97;;;1.30;;
22939;SDS011;11636;52.086;5.090;2023-08-17T10:13:57;2.53;;;1.27;;
22939;SDS011;11636;52.086;5.090;2023-08-17T10:16:50;2.95;;;1.10;;
22939;SDS011;11636;52.086;5.090;2023-08-17T10:19:54;4.38;;;1.50;;
22939;SDS011;11636;52.086;5.090;2023-08-17T10:22:49;3.88;;;1.30;;
22939;SDS011;11636;52.086;5.090;2023-08-17T10:25:49;4.43;;;1.52;;
22939;SDS011;11636;52.086;5.090;2023-08-17T10:28:37;4.22;;;1.50;;
22939;SDS011;11636;52.086;5.090;2023-08-17T10:31:33;4.65;;;1.88;;
22939;SDS011;11636;52.086;5.090;2023-08-17T10:34:21;3.45;;;1.63;;
22939;SDS011;11636;52.086;5.090;2023-08-17T10:37:14;4.43;;;1.55;;
22939;SDS011;11636;52.086;5.090;2023-08-17T10:40:04;3.60;;;1.65;;
22939;SDS011;11636;52.086;5.090;2023-08-17T10:43:01;4.55;;;2.10;;
22939;SDS011;11636;52.086;5.090;2023-08-17T10:45:48;6.60;;;1.88;;
22939;SDS011;11636;52.086;5.090;2023-08-17T10:48:44;3.70;;;1.55;;
22939;SDS011;11636;52.086;5.090;2023-08-17T10:51:31;3.28;;;1.60;;
22939;SDS011;11636;52.086;5.090;2023-08-17T10:54:37;2.72;;;1.30;;
22939;SDS011;11636;52.086;5.090;2023-08-17T10:57:29;5.20;;;1.90;;
22939;SDS011;11636;52.086;5.090;2023-08-17T11:00:23;4.57;;;1.90;;
22939;SDS011;11636;52.086;5.090;2023-08-17T11:03:20;4.65;;;1.90;;
22939;SDS011;11636;52.086;5.090;2023-08-17T11:06:16;3.80;;;1.70;;
22939;SDS011;11636;52.086;5.090;2023-08-17T11:09:12;3.72;;;1.83;;
22939;SDS011;11636;52.086;5.090;2023-08-17T11:12:02;5.05;;;2.20;;
22939;SDS011;11636;52.086;5.090;2023-08-17T11:14:57;4.38;;;2.42;;
22939;SDS011;11636;52.086;5.090;2023-08-17T11:17:46;3.70;;;2.00;;
22939;SDS011;11636;52.086;5.090;2023-08-17T11:20:40;5.82;;;2.30;;
22939;SDS011;11636;52.086;5.090;2023-08-17T11:23:35;5.45;;;2.50;;
22939;SDS011;11636;52.086;5.090;2023-08-17T11:26:30;4.55;;;2.17;;
22939;SDS011;11636;52.086;5.090;2023-08-17T11:29:25;5.68;;;2.10;;
22939;SDS011;11636;52.086;5.090;2023-08-17T11:32:12;5.82;;;2.20;;
22939;SDS011;11636;52.086;5.090;2023-08-17T11:35:09;4.28;;;2.13;;
22939;SDS011;11636;52.086;5.090;2023-08-17T11:37:57;7.45;;;3.15;;
22939;SDS011;11636;52.086;5.090;2023-08-17T11:40:54;6.60;;;2.70;;
22939;SDS011;11636;52.086;5.090;2023-08-17T11:43:43;5.43;;;2.25;;
22939;SDS011;11636;52.086;5.090;2023-08-17T11:46:37;7.53;;;3.05;;
22939;SDS011;11636;52.086;5.090;2023-08-17T11:49:25;4.30;;;2.33;;
22939;SDS011;11636;52.086;5.090;2023-08-17T11:52:25;4.63;;;2.47;;
22939;SDS011;11636;52.086;5.090;2023-08-17T11:55:15;5.28;;;2.75;;
22939;SDS011;11636;52.086;5.090;2023-08-17T11:58:11;4.75;;;2.67;;
22939;SDS011;11636;52.086;5.090;2023-08-17T12:01:08;5.78;;;2.70;;
22939;SDS011;11636;52.086;5.090;2023-08-17T12:03:56;4.22;;;2.42;;
22939;SDS011;11636;52.086;5.090;2023-08-17T12:06:50;4.63;;;2.20;;
22939;SDS011;11636;52.086;5.090;2023-08-17T12:09:37;4.32;;;2.20;;
22939;SDS011;11636;52.086;5.090;2023-08-17T12:12:31;4.78;;;2.40;;
22939;SDS011;11636;52.086;5.090;2023-08-17T12:15:35;4.50;;;2.38;;
22939;SDS011;11636;52.086;5.090;2023-08-17T12:18:31;4.07;;;2.33;;
22939;SDS011;11636;52.086;5.090;2023-08-17T12:21:26;5.30;;;2.90;;
22939;SDS011;11636;52.086;5.090;2023-08-17T12:24:23;4.13;;;2.40;;
22939;SDS011;11636;52.086;5.090;2023-08-17T12:27:11;4.55;;;2.60;;
22939;SDS011;11636;52.086;5.090;2023-08-17T12:30:05;6.82;;;2.70;;
22939;SDS011;11636;52.086;5.090;2023-08-17T12:33:06;4.25;;;2.15;;
22939;SDS011;11636;52.086;5.090;2023-08-17T12:36:00;4.40;;;2.33;;
22939;SDS011;11636;52.086;5.090;2023-08-17T12:38:47;4.15;;;2.33;;
22939;SDS011;11636;52.086;5.090;2023-08-17T12:41:41;3.20;;;1.70;;
22939;SDS011;11636;52.086;5.090;2023-08-17T12:44:28;3.78;;;1.80;;
22939;SDS011;11636;52.086;5.090;2023-08-17T12:47:22;4.15;;;2.20;;
22939;SDS011;11636;52.086;5.090;2023-08-17T12:50:20;5.05;;;2.30;;
22939;SDS011;11636;52.086;5.090;2023-08-17T12:53:07;4.55;;;2.17;;
22939;SDS011;11636;52.086;5.090;2023-08-17T12:56:01;3.50;;;1.90;;
22939;SDS011;11636;52.086;5.090;2023-08-17T12:58:48;3.83;;;2.00;;
22939;SDS011;11636;52.086;5.090;2023-08-17T13:01:42;4.78;;;2.40;;
22939;SDS011;11636;52.086;5.090;2023-08-17T13:04:29;6.22;;;2.90;;
22939;SDS011;11636;52.086;5.090;2023-08-17T13:07:23;3.80;;;2.30;;
22939;SDS011;11636;52.086;5.090;2023-08-17T13:10:10;3.90;;;2.10;;
22939;SDS011;11636;52.086;5.090;2023-08-17T13:13:10;3.83;;;2.10;;
22939;SDS011;11636;52.086;5.090;2023-08-17T13:16:11;3.70;;;2.17;;
22939;SDS011;11636;52.086;5.090;2023-08-17T13:18:58;4.70;;;2.65;;
22939;SDS011;11636;52.086;5.090;2023-08-17T13:21:52;4.03;;;2.00;;
22939;SDS011;11636;52.086;5.090;2023-08-17T13:24:39;4.20;;;2.05;;
22939;SDS011;11636;52.086;5.090;2023-08-17T13:27:33;3.78;;;2.15;;
22939;SDS011;11636;52.086;5.090;2023-08-17T13:30:20;3.83;;;2.05;;
22939;SDS011;11636;52.086;5.090;2023-08-17T13:33:14;5.20;;;2.28;;
22939;SDS011;11636;52.086;5.090;2023-08-17T13:36:10;4.03;;;2.00;;
22939;SDS011;11636;52.086;5.090;2023-08-17T13:39:04;4.88;;;2.40;;
22939;SDS011;11636;52.086;5.090;2023-08-17T13:41:51;4.57;;;2.53;;
22939;SDS011;11636;52.086;5.090;2023-08-17T13:44:45;7.45;;;3.88;;
22939;SDS011;11636;52.086;5.090;2023-08-17T13:47:32;6.00;;;2.70;;
22939;SDS011;11636;52.086;5.090;2023-08-17T13:50:26;5.28;;;2.53;;
22939;SDS011;11636;52.086;5.090;2023-08-17T13:53:20;4.43;;;2.25;;
22939;SDS011;11636;52.086;5.090;2023-08-17T13:56:14;3.80;;;2.08;;
22939;SDS011;11636;52.086;5.090;2023-08-17T13:59:09;4.68;;;2.10;;
22939;SDS011;11636;52.086;5.090;2023-08-17T14:02:03;4.47;;;2.40;;
22939;SDS011;11636;52.086;5.090;2023-08-17T14:04:51;5.38;;;2.63;;
22939;SDS011;11636;52.086;5.090;2023-08-17T14:07:44;4.63;;;2.40;;
22939;SDS011;11636;52.086;5.090;2023-08-17T14:10:31;3.60;;;2.00;;
22939;SDS011;11636;52.086;5.090;2023-08-17T14:13:26;3.92;;;1.90;;
22939;SDS011;11636;52.086;5.090;2023-08-17T14:16:20;3.45;;;1.88;;
22939;SDS011;11636;52.086;5.090;2023-08-17T14:19:14;4.07;;;2.00;;
22939;SDS011;11636;52.086;5.090;2023-08-17T14:22:08;4.93;;;2.17;;
22939;SDS011;11636;52.086;5.090;2023-08-17T14:24:55;3.00;;;1.85;;
22939;SDS011;11636;52.086;5.090;2023-08-17T14:27:49;8.18;;;2.83;;
22939;SDS011;11636;52.086;5.090;2023-08-17T14:30:36;4.78;;;2.40;;
22939;SDS011;11636;52.086;5.090;2023-08-17T14:33:30;6.40;;;2.35;;
22939;SDS011;11636;52.086;5.090;2023-08-17T14:36:24;4.15;;;1.98;;
22939;SDS011;11636;52.086;5.090;2023-08-17T14:39:11;3.03;;;1.75;;
22939;SDS011;11636;52.086;5.090;2023-08-17T14:42:05;5.53;;;2.85;;
22939;SDS011;11636;52.086;5.090;2023-08-17T14:44:52;4.82;;;2.20;;
22939;SDS011;11636;52.086;5.090;2023-08-17T14:47:52;4.80;;;2.35;;
22939;SDS011;11636;52.086;5.090;2023-08-17T14:50:47;3.78;;;2.00;;
22939;SDS011;11636;52.086;5.090;2023-08-17T14:53:41;4.10;;;2.08;;
22939;SDS011;11636;52.086;5.090;2023-08-17T14:56:31;4.10;;;2.05;;
22939;SDS011;11636;52.086;5.090;2023-08-17T14:59:25;3.85;;;2.17;;
22939;SDS011;11636;52.086;5.090;2023-08-17T15:02:19;3.08;;;1.92;;
22939;SDS011;11636;52.086;5.090;2023-08-17T15:05:20;3.03;;;1.70;;
22939;SDS011;11636;52.086;5.090;2023-08-17T15:08:15;3.20;;;1.75;;
22939;SDS011;11636;52.086;5.090;2023-08-17T15:11:03;3.67;;;1.92;;
22939;SDS011;11636;52.086;5.090;2023-08-17T15:13:56;3.03;;;1.63;;
22939;SDS011;11636;52.086;5.090;2023-08-17T15:16:43;3.92;;;2.10;;
22939;SDS011;11636;52.086;5.090;2023-08-17T15:19:43;4.65;;;2.15;;
22939;SDS011;11636;52.086;5.090;2023-08-17T15:22:37;5.10;;;2.53;;
22939;SDS011;11636;52.086;5.090;2023-08-17T15:25:31;4.18;;;2.25;;
22939;SDS011;11636;52.086;5.090;2023-08-17T15:28:25;3.97;;;1.85;;
22939;SDS011;11636;52.086;5.090;2023-08-17T15:31:12;3.25;;;1.73;;
22939;SDS011;11636;52.086;5.090;2023-08-17T15:34:06;3.92;;;1.80;;
22939;SDS011;11636;52.086;5.090;2023-08-17T15:37:00;4.93;;;2.55;;
22939;SDS011;11636;52.086;5.090;2023-08-17T15:39:54;4.82;;;2.50;;
22939;SDS011;11636;52.086;5.090;2023-08-17T15:42:41;4.45;;;2.22;;
22939;SDS011;11636;52.086;5.090;2023-08-17T15:45:35;4.35;;;2.72;;
22939;SDS011;11636;52.086;5.090;2023-08-17T15:48:22;5.03;;;2.55;;
22939;SDS011;11636;52.086;5.090;2023-08-17T15:51:16;4.72;;;2.50;;
22939;SDS011;11636;52.086;5.090;2023-08-17T15:54:10;4.55;;;2.67;;
22939;SDS011;11636;52.086;5.090;2023-08-17T15:57:20;4.50;;;2.97;;
22939;SDS011;11636;52.086;5.090;2023-08-17T16:00:15;4.43;;;2.58;;
22939;SDS011;11636;52.086;5.090;2023-08-17T16:03:02;4.50;;;2.80;;
22939;SDS011;11636;52.086;5.090;2023-08-17T16:05:59;4.38;;;2.58;;
22939;SDS011;11636;52.086;5.090;2023-08-17T16:08:46;4.13;;;2.80;;
22939;SDS011;11636;52.086;5.090;2023-08-17T16:11:40;5.05;;;3.00;;
22939;SDS011;11636;52.086;5.090;2023-08-17T16:14:27;4.60;;;2.80;;
22939;SDS011;11636;52.086;5.090;2023-08-17T16:17:21;4.38;;;2.40;;
22939;SDS011;11636;52.086;5.090;2023-08-17T16:20:08;5.95;;;2.53;;
22939;SDS011;11636;52.086;5.090;2023-08-17T16:23:03;4.00;;;2.72;;
22939;SDS011;11636;52.086;5.090;2023-08-17T16:25:51;5.70;;;3.38;;
22939;SDS011;11636;52.086;5.090;2023-08-17T16:28:44;5.60;;;2.83;;
22939;SDS011;11636;52.086;5.090;2023-08-17T16:31:38;5.63;;;3.00;;
22939;SDS011;11636;52.086;5.090;2023-08-17T16:34:25;4.82;;;3.17;;
22939;SDS011;11636;52.086;5.090;2023-08-17T16:37:19;4.53;;;3.10;;
22939;SDS011;11636;52.086;5.090;2023-08-17T16:40:06;5.80;;;3.90;;
22939;SDS011;11636;52.086;5.090;2023-08-17T16:43:21;6.88;;;3.85;;
22939;SDS011;11636;52.086;5.090;2023-08-17T16:46:15;5.35;;;3.25;;
22939;SDS011;11636;52.086;5.090;2023-08-17T16:49:09;4.75;;;2.65;;
22939;SDS011;11636;52.086;5.090;2023-08-17T16:51:58;4.70;;;3.10;;
22939;SDS011;11636;52.086;5.090;2023-08-17T16:54:52;6.32;;;3.38;;
22939;SDS011;11636;52.086;5.090;2023-08-17T16:57:39;4.80;;;3.50;;
22939;SDS011;11636;52.086;5.090;2023-08-17T17:00:33;4.68;;;3.10;;
22939;SDS011;11636;52.086;5.090;2023-08-17T17:03:28;6.88;;;3.90;;
22939;SDS011;11636;52.086;5.090;2023-08-17T17:06:22;6.03;;;4.10;;
22939;SDS011;11636;52.086;5.090;2023-08-17T17:09:17;5.60;;;3.97;;
22939;SDS011;11636;52.086;5.090;2023-08-17T17:12:05;6.32;;;3.63;;
22939;SDS011;11636;52.086;5.090;2023-08-17T17:14:59;7.13;;;4.32;;
22939;SDS011;11636;52.086;5.090;2023-08-17T17:17:46;5.05;;;3.88;;
22939;SDS011;11636;52.086;5.090;2023-08-17T17:20:40;5.20;;;3.55;;
22939;SDS011;11636;52.086;5.090;2023-08-17T17:23:28;5.88;;;4.10;;